createdAt,value
2022-12-17T00:01:54.652Z,98183.72
2022-12-17T00:04:39.970Z,98196.94
2022-12-17T00:07:25.386Z,98198.22
2022-12-17T00:10:27.574Z,98195.22
2022-12-17T00:13:12.944Z,98189.81
2022-12-17T00:16:12.945Z,98189.47
2022-12-17T00:18:59.612Z,98193.94
2022-12-17T00:21:44.838Z,98196.66
2022-12-17T00:24:29.870Z,98200.09
2022-12-17T00:27:14.903Z,98202.88
2022-12-17T00:30:00.051Z,98202.88
2022-12-17T00:32:45.284Z,98201.38
2022-12-17T00:35:31.994Z,98207.50
2022-12-17T00:38:17.100Z,98210.72
2022-12-17T00:41:02.202Z,98203.41
2022-12-17T00:43:47.450Z,98212.53
2022-12-17T00:46:32.803Z,98208.09
2022-12-17T00:49:18.234Z,98221.09
2022-12-17T00:52:05.186Z,98214.41
2022-12-17T00:54:50.219Z,98210.28
2022-12-17T00:57:35.570Z,98215.31
2022-12-17T01:00:20.933Z,98218.91
2022-12-17T01:03:07.563Z,98220.84
2022-12-17T01:05:52.651Z,98235.75
2022-12-17T01:08:40.121Z,98232.22
2022-12-17T01:11:28.137Z,98236.41
2022-12-17T01:14:13.515Z,98229.38
2022-12-17T01:16:58.832Z,98237.53
2022-12-17T01:19:44.317Z,98244.69
2022-12-17T01:22:29.767Z,98248.31
2022-12-17T01:25:16.421Z,98254.97
2022-12-17T01:28:01.784Z,98253.06
2022-12-17T01:30:46.991Z,98259.28
2022-12-17T01:33:32.412Z,98256.50
2022-12-17T01:36:17.691Z,98265.00
2022-12-17T01:39:03.582Z,98276.38
2022-12-17T01:41:50.282Z,98266.78
2022-12-17T01:45:04.613Z,98272.44
2022-12-17T01:47:53.176Z,98268.66
2022-12-17T01:50:44.072Z,98274.69
2022-12-17T01:53:30.383Z,98273.97
2022-12-17T01:56:16.281Z,98281.94
2022-12-17T01:59:03.044Z,98273.72
2022-12-17T02:01:48.561Z,98275.38
2022-12-17T02:04:34.425Z,98271.91
2022-12-17T02:07:37.630Z,98279.97
2022-12-17T02:10:34.818Z,98288.63
2022-12-17T02:13:28.785Z,98291.16
2022-12-17T02:16:17.907Z,98291.97
2022-12-17T02:19:25.372Z,98293.91
2022-12-17T02:22:16.890Z,98298.09
2022-12-17T02:25:11.911Z,98294.09
2022-12-17T02:28:02.471Z,98295.78
2022-12-17T02:30:49.570Z,98292.88
2022-12-17T02:33:36.353Z,98286.97
2022-12-17T02:36:24.767Z,98296.50
2022-12-17T02:39:12.309Z,98297.19
2022-12-17T02:42:01.239Z,98299.94
2022-12-17T02:44:49.412Z,98294.31
2022-12-17T02:47:41.809Z,98304.38
2022-12-17T02:50:28.645Z,98299.03
2022-12-17T02:53:17.150Z,98300.94
2022-12-17T02:56:02.571Z,98296.66
2022-12-17T02:58:47.982Z,98295.16
2022-12-17T03:01:35.157Z,98295.88
2022-12-17T03:04:20.552Z,98301.09
2022-12-17T03:07:06.081Z,98308.81
2022-12-17T03:09:51.487Z,98303.06
2022-12-17T03:12:36.812Z,98308.00
2022-12-17T03:15:27.480Z,98313.94
2022-12-17T03:18:14.129Z,98313.09
2022-12-17T03:20:59.376Z,98314.63
2022-12-17T03:23:44.598Z,98310.22
2022-12-17T03:26:30.467Z,98323.50
2022-12-17T03:29:15.638Z,98320.88
2022-12-17T03:32:01.012Z,98323.63
2022-12-17T03:34:47.651Z,98330.66
2022-12-17T03:37:32.716Z,98323.91
2022-12-17T03:40:18.116Z,98320.44
2022-12-17T03:43:03.530Z,98327.09
2022-12-17T03:45:48.957Z,98327.75
2022-12-17T03:48:34.311Z,98329.84
2022-12-17T03:51:21.523Z,98334.41
2022-12-17T03:54:07.378Z,98335.34
2022-12-17T03:56:52.654Z,98344.00
2022-12-17T03:59:37.849Z,98345.66
2022-12-17T04:02:23.209Z,98328.88
2022-12-17T04:05:08.413Z,98332.59
2022-12-17T04:07:55.072Z,98335.91
2022-12-17T04:10:40.323Z,98335.75
2022-12-17T04:13:25.812Z,98344.72
2022-12-17T04:16:11.113Z,98343.06
2022-12-17T04:18:56.428Z,98351.16
2022-12-17T04:21:41.803Z,98358.47
2022-12-17T04:24:28.443Z,98359.00
2022-12-17T04:27:13.979Z,98362.31
2022-12-17T04:29:59.212Z,98361.38
2022-12-17T04:32:44.499Z,98360.50
2022-12-17T04:35:29.769Z,98355.13
2022-12-17T04:38:15.001Z,98354.47
2022-12-17T04:41:01.524Z,98363.69
2022-12-17T04:43:46.753Z,98367.69
2022-12-17T04:46:32.267Z,98366.28
2022-12-17T04:49:17.606Z,98366.03
2022-12-17T04:52:03.047Z,98371.53
2022-12-17T04:54:48.413Z,98368.50
2022-12-17T04:57:34.979Z,98380.31
2022-12-17T05:00:20.324Z,98384.97
2022-12-17T05:03:05.761Z,98397.91
2022-12-17T05:05:50.939Z,98390.22
2022-12-17T05:08:41.247Z,98395.44
2022-12-17T05:11:26.659Z,98393.13
2022-12-17T05:14:13.351Z,98397.91
2022-12-17T05:16:58.564Z,98397.09
2022-12-17T05:19:43.867Z,98407.69
2022-12-17T05:22:29.248Z,98404.53
2022-12-17T05:25:14.721Z,98399.53
2022-12-17T05:28:00.224Z,98401.75
2022-12-17T05:30:46.530Z,98412.97
2022-12-17T05:33:31.817Z,98414.94
2022-12-17T05:36:18.658Z,98416.44
2022-12-17T05:39:03.980Z,98416.28
2022-12-17T05:41:49.120Z,98423.72
2022-12-17T05:44:34.562Z,98429.59
2022-12-17T05:47:21.263Z,98427.81
2022-12-17T05:50:06.686Z,98422.59
2022-12-17T05:52:52.088Z,98421.88
2022-12-17T05:55:37.499Z,98433.53
2022-12-17T05:58:23.390Z,98435.19
2022-12-17T06:01:08.709Z,98429.28
2022-12-17T06:03:55.603Z,98443.31
2022-12-17T06:06:40.886Z,98448.25
2022-12-17T06:09:26.287Z,98454.72
2022-12-17T06:12:11.503Z,98454.19
2022-12-17T06:14:56.690Z,98453.94
2022-12-17T06:17:42.056Z,98460.22
2022-12-17T06:20:29.546Z,98462.97
2022-12-17T06:23:18.304Z,98471.66
2022-12-17T06:26:03.746Z,98474.56
2022-12-17T06:28:49.193Z,98469.75
2022-12-17T06:31:34.652Z,98471.19
2022-12-17T06:34:19.758Z,98473.13
2022-12-17T06:37:06.185Z,98481.53
2022-12-17T06:39:51.584Z,98481.44
2022-12-17T06:42:37.092Z,98486.81
2022-12-17T06:45:22.798Z,98490.41
2022-12-17T06:48:08.099Z,98486.56
2022-12-17T06:50:53.378Z,98487.41
2022-12-17T06:53:40.016Z,98495.81
2022-12-17T06:56:25.949Z,98490.19
2022-12-17T06:59:11.310Z,98494.19
2022-12-17T07:01:56.409Z,98489.25
2022-12-17T07:04:41.559Z,98495.16
2022-12-17T07:07:27.040Z,98502.75
2022-12-17T07:10:14.541Z,98506.16
2022-12-17T07:12:59.965Z,98509.75
2022-12-17T07:15:45.460Z,98521.69
2022-12-17T07:18:30.828Z,98532.84
2022-12-17T07:21:16.180Z,98525.13
2022-12-17T07:24:01.619Z,98532.84
2022-12-17T07:26:48.191Z,98546.31
2022-12-17T07:29:33.574Z,98543.44
2022-12-17T07:32:18.761Z,98546.03
2022-12-17T07:35:04.060Z,98548.09
2022-12-17T07:37:49.377Z,98550.94
2022-12-17T07:40:34.632Z,98557.56
2022-12-17T07:43:28.792Z,98561.41
2022-12-17T07:46:14.139Z,98555.75
2022-12-17T07:48:59.446Z,98565.91
2022-12-17T07:51:44.780Z,98569.66
2022-12-17T07:54:30.337Z,98576.00
2022-12-17T07:57:15.615Z,98577.91
2022-12-17T08:00:02.380Z,98577.41
2022-12-17T08:02:51.365Z,98580.41
2022-12-17T08:05:36.650Z,98587.06
2022-12-17T08:08:26.498Z,98586.69
2022-12-17T08:11:11.977Z,98594.28
2022-12-17T08:13:57.329Z,98594.16
2022-12-17T08:16:44.325Z,98599.56
2022-12-17T08:19:29.809Z,98607.41
2022-12-17T08:22:14.767Z,98613.06
2022-12-17T08:25:00.140Z,98610.19
2022-12-17T08:27:45.422Z,98618.63
2022-12-17T08:30:31.047Z,98616.88
2022-12-17T08:33:22.490Z,98619.34
2022-12-17T08:36:11.757Z,98624.88
2022-12-17T08:38:57.032Z,98632.44
2022-12-17T08:41:42.373Z,98628.88
2022-12-17T08:44:27.758Z,98626.25
2022-12-17T08:47:13.048Z,98633.84
2022-12-17T08:49:59.743Z,98631.91
2022-12-17T08:52:45.040Z,98631.31
2022-12-17T08:55:30.506Z,98629.94
2022-12-17T08:58:17.510Z,98645.25
2022-12-17T09:01:03.868Z,98635.41
2022-12-17T09:03:49.175Z,98641.88
2022-12-17T09:06:39.154Z,98643.38
2022-12-17T09:09:24.809Z,98650.13
2022-12-17T09:12:10.060Z,98649.88
2022-12-17T09:14:55.736Z,98645.25
2022-12-17T09:17:40.786Z,98655.00
2022-12-17T09:20:29.386Z,98658.53
2022-12-17T09:23:16.580Z,98645.19
2022-12-17T09:26:02.544Z,98643.78
2022-12-17T09:29:01.626Z,98653.88
2022-12-17T09:31:46.928Z,98650.91
2022-12-17T09:34:32.410Z,98647.84
2022-12-17T09:37:18.125Z,98658.44
2022-12-17T09:40:04.663Z,98665.75
2022-12-17T09:42:59.845Z,98663.91
2022-12-17T09:45:51.302Z,98658.50
2022-12-17T09:48:44.733Z,98662.03
2022-12-17T09:51:40.261Z,98659.63
2022-12-17T09:54:34.348Z,98665.66
2022-12-17T09:57:21.542Z,98670.25
2022-12-17T10:00:06.963Z,98667.69
2022-12-17T10:02:52.449Z,98672.09
2022-12-17T10:05:41.953Z,98670.75
2022-12-17T10:08:32.754Z,98672.03
2022-12-17T10:11:34.187Z,98664.47
2022-12-17T10:14:33.836Z,98668.97
2022-12-17T10:17:29.770Z,98668.34
2022-12-17T10:20:15.033Z,98673.25
2022-12-17T10:23:02.477Z,98677.97
2022-12-17T10:25:47.926Z,98684.44
2022-12-17T10:28:35.820Z,98678.28
2022-12-17T10:31:26.912Z,98682.22
2022-12-17T10:34:15.214Z,98679.19
2022-12-17T10:37:04.702Z,98684.78
2022-12-17T10:39:50.673Z,98682.69
2022-12-17T10:42:40.430Z,98685.22
2022-12-17T10:45:43.575Z,98684.97
2022-12-17T10:48:55.984Z,98690.13
2022-12-17T10:51:46.362Z,98685.50
2022-12-17T10:54:44.007Z,98690.41
2022-12-17T10:57:42.924Z,98676.97
2022-12-17T11:00:50.872Z,98688.66
2022-12-17T11:03:50.802Z,98688.06
2022-12-17T11:06:43.277Z,98686.38
2022-12-17T11:09:53.918Z,98677.00
2022-12-17T11:12:44.441Z,98690.03
2022-12-17T11:15:37.944Z,98686.38
2022-12-17T11:18:25.386Z,98700.56
2022-12-17T11:21:16.785Z,98696.44
2022-12-17T11:24:07.253Z,98692.66
2022-12-17T11:26:56.478Z,98683.06
2022-12-17T11:29:41.872Z,98686.50
2022-12-17T11:32:44.098Z,98687.56
2022-12-17T11:35:37.800Z,98693.00
2022-12-17T11:38:33.592Z,98691.00
2022-12-17T11:41:27.889Z,98702.38
2022-12-17T11:44:20.349Z,98697.94
2022-12-17T11:47:14.201Z,98699.75
2022-12-17T11:50:06.615Z,98709.81
2022-12-17T11:53:01.522Z,98696.13
2022-12-17T11:55:55.137Z,98703.41
2022-12-17T11:58:49.929Z,98702.22
2022-12-17T12:01:43.979Z,98699.59
2022-12-17T12:04:43.839Z,98698.13
2022-12-17T12:07:36.321Z,98689.63
2022-12-17T12:10:25.150Z,98691.63
2022-12-17T12:13:22.826Z,98689.34
2022-12-17T12:16:23.733Z,98682.75
2022-12-17T12:19:19.533Z,98687.69
2022-12-17T12:22:14.065Z,98696.78
2022-12-17T12:25:15.605Z,98687.38
2022-12-17T12:28:12.213Z,98694.13
2022-12-17T12:31:10.336Z,98694.50
2022-12-17T12:34:09.474Z,98683.44
2022-12-17T12:36:56.595Z,98690.00
2022-12-17T12:39:49.917Z,98695.78
2022-12-17T12:42:42.499Z,98692.16
2022-12-17T12:45:48.131Z,98704.22
2022-12-17T12:48:46.722Z,98697.31
2022-12-17T12:51:37.829Z,98694.97
2022-12-17T12:54:41.775Z,98692.84
2022-12-17T12:57:49.189Z,98691.19
2022-12-17T13:00:47.878Z,98700.25
2022-12-17T13:03:42.493Z,98695.16
2022-12-17T13:06:09.356Z,98693.50
2022-12-17T13:08:36.741Z,98699.28
2022-12-17T13:11:27.896Z,98688.84
2022-12-17T13:14:00.305Z,98688.84
2022-12-17T13:16:41.580Z,98682.25
2022-12-17T13:19:31.564Z,98683.75
2022-12-17T13:22:10.203Z,98682.44
2022-12-17T13:24:37.296Z,98693.16
2022-12-17T13:27:05.035Z,98692.34
2022-12-17T13:29:37.146Z,98701.41
2022-12-17T13:32:15.784Z,98698.94
2022-12-17T13:35:10.134Z,98694.81
2022-12-17T13:37:45.241Z,98705.72
2022-12-17T13:40:26.924Z,98701.59
2022-12-17T13:42:54.313Z,98704.88
2022-12-17T13:45:24.541Z,98698.78
2022-12-17T13:47:55.785Z,98705.22
2022-12-17T13:50:35.284Z,98702.91
2022-12-17T13:53:10.593Z,98704.22
2022-12-17T13:55:38.341Z,98707.34
2022-12-17T13:58:05.053Z,98706.53
2022-12-17T14:00:32.533Z,98696.63
2022-12-17T14:03:10.446Z,98706.22
2022-12-17T14:05:43.450Z,98700.09
2022-12-17T14:08:16.541Z,98697.09
2022-12-17T14:10:49.785Z,98699.91
2022-12-17T14:13:16.868Z,98701.56
2022-12-17T14:15:47.379Z,98705.69
2022-12-17T14:18:18.839Z,98697.72
2022-12-17T14:20:50.672Z,98704.41
2022-12-17T14:23:27.981Z,98710.50
2022-12-17T14:25:56.441Z,98706.84
2022-12-17T14:28:25.375Z,98704.53
2022-12-17T14:31:26.114Z,98707.63
2022-12-17T14:34:01.238Z,98700.69
2022-12-17T14:36:30.541Z,98708.38
2022-12-17T14:38:59.827Z,98718.47
2022-12-17T14:41:46.120Z,98715.75
2022-12-17T14:44:21.685Z,98721.94
2022-12-17T14:46:49.046Z,98724.59
2022-12-17T14:49:21.649Z,98718.75
2022-12-17T14:51:50.116Z,98723.31
2022-12-17T14:54:29.304Z,98722.09
2022-12-17T14:56:57.805Z,98735.56
2022-12-17T14:59:32.496Z,98733.25
2022-12-17T15:02:03.067Z,98732.88
2022-12-17T15:04:31.016Z,98734.16
2022-12-17T15:06:59.600Z,98733.41
2022-12-17T15:09:26.286Z,98732.22
2022-12-17T15:11:52.994Z,98741.84
2022-12-17T15:14:19.689Z,98734.25
2022-12-17T15:16:46.432Z,98744.25
2022-12-17T15:19:17.967Z,98736.38
2022-12-17T15:21:44.953Z,98738.38
2022-12-17T15:24:17.534Z,98743.81
2022-12-17T15:26:44.256Z,98746.44
2022-12-17T15:29:11.105Z,98748.69
2022-12-17T15:31:38.048Z,98750.72
2022-12-17T15:34:05.299Z,98742.88
2022-12-17T15:36:47.052Z,98751.50
2022-12-17T15:39:15.218Z,98757.50
2022-12-17T15:42:01.090Z,98755.31
2022-12-17T15:44:27.890Z,98758.09
2022-12-17T15:46:54.544Z,98753.75
2022-12-17T15:49:21.365Z,98761.50
2022-12-17T15:51:47.977Z,98761.94
2022-12-17T15:54:16.152Z,98762.78
2022-12-17T15:56:42.929Z,98773.63
2022-12-17T15:59:09.669Z,98776.22
2022-12-17T16:01:36.587Z,98770.28
2022-12-17T16:04:03.586Z,98772.75
2022-12-17T16:06:30.452Z,98772.66
2022-12-17T16:08:58.235Z,98777.81
2022-12-17T16:11:26.303Z,98772.81
2022-12-17T16:13:55.094Z,98788.03
2022-12-17T16:16:23.301Z,98785.34
2022-12-17T16:18:50.346Z,98788.78
2022-12-17T16:21:17.125Z,98795.34
2022-12-17T16:23:43.763Z,98795.22
2022-12-17T16:26:11.745Z,98798.22
2022-12-17T16:28:44.189Z,98807.06
2022-12-17T16:31:13.667Z,98810.38
2022-12-17T16:33:43.225Z,98810.66
2022-12-17T16:36:13.416Z,98808.31
2022-12-17T16:38:43.366Z,98804.81
2022-12-17T16:41:09.958Z,98810.47
2022-12-17T16:43:36.729Z,98809.22
2022-12-17T16:46:10.617Z,98814.34
2022-12-17T16:48:39.267Z,98816.28
2022-12-17T16:51:18.249Z,98812.41
2022-12-17T16:53:47.978Z,98815.56
2022-12-17T16:56:18.928Z,98813.91
2022-12-17T16:58:46.216Z,98820.97
2022-12-17T17:01:18.668Z,98820.66
2022-12-17T17:03:45.462Z,98822.56
2022-12-17T17:06:12.305Z,98825.59
2022-12-17T17:08:40.187Z,98825.03
2022-12-17T17:11:13.292Z,98832.06
2022-12-17T17:13:40.630Z,98831.50
2022-12-17T17:16:09.147Z,98824.75
2022-12-17T17:18:38.434Z,98828.59
2022-12-17T17:21:25.389Z,98830.56
2022-12-17T17:23:57.354Z,98837.22
2022-12-17T17:26:24.261Z,98837.84
2022-12-17T17:28:51.856Z,98837.03
2022-12-17T17:31:18.996Z,98836.56
2022-12-17T17:33:50.696Z,98840.53
2022-12-17T17:36:19.580Z,98839.00
2022-12-17T17:38:47.446Z,98845.41
2022-12-17T17:41:16.141Z,98846.22
2022-12-17T17:43:43.245Z,98845.78
2022-12-17T17:46:12.692Z,98839.16
2022-12-17T17:48:40.343Z,98838.16
2022-12-17T17:51:11.878Z,98829.56
2022-12-17T17:53:38.734Z,98838.50
2022-12-17T17:56:08.004Z,98838.13
2022-12-17T17:58:35.124Z,98834.47
2022-12-17T18:01:08.065Z,98836.81
2022-12-17T18:03:35.002Z,98840.19
2022-12-17T18:06:02.583Z,98849.78
2022-12-17T18:08:31.430Z,98854.75
2022-12-17T18:10:59.690Z,98842.81
2022-12-17T18:13:45.133Z,98847.38
2022-12-17T18:16:12.794Z,98854.38
2022-12-17T18:18:40.072Z,98857.56
2022-12-17T18:21:08.775Z,98862.03
2022-12-17T18:23:37.607Z,98860.56
2022-12-17T18:26:06.626Z,98860.06
2022-12-17T18:28:33.390Z,98859.97
2022-12-17T18:31:05.994Z,98864.53
2022-12-17T18:33:32.942Z,98868.25
2022-12-17T18:35:59.699Z,98867.59
2022-12-17T18:38:26.420Z,98862.50
2022-12-17T18:40:54.418Z,98871.53
2022-12-17T18:43:23.859Z,98866.69
2022-12-17T18:45:51.037Z,98862.69
2022-12-17T18:48:18.318Z,98858.22
2022-12-17T18:50:45.212Z,98863.06
2022-12-17T18:53:12.524Z,98861.16
2022-12-17T18:55:40.763Z,98869.03
2022-12-17T18:58:10.879Z,98868.31
2022-12-17T19:00:38.923Z,98866.84
2022-12-17T19:03:05.950Z,98871.81
2022-12-17T19:05:32.740Z,98875.94
2022-12-17T19:07:59.376Z,98873.16
2022-12-17T19:10:26.194Z,98869.38
2022-12-17T19:12:52.868Z,98869.47
2022-12-17T19:15:21.030Z,98866.94
2022-12-17T19:17:50.815Z,98862.78
2022-12-17T19:20:18.703Z,98868.78
2022-12-17T19:22:45.375Z,98867.00
2022-12-17T19:25:12.419Z,98865.47
2022-12-17T19:27:39.122Z,98865.09
2022-12-17T19:30:07.309Z,98876.28
2022-12-17T19:32:35.564Z,98876.06
2022-12-17T19:35:02.595Z,98873.31
2022-12-17T19:37:29.291Z,98866.69
2022-12-17T19:39:56.107Z,98871.44
2022-12-17T19:42:25.583Z,98876.06
2022-12-17T19:44:53.194Z,98876.91
2022-12-17T19:47:20.112Z,98868.16
2022-12-17T19:49:48.323Z,98867.56
2022-12-17T19:52:15.080Z,98867.69
2022-12-17T19:54:41.851Z,98871.56
2022-12-17T19:57:08.551Z,98870.31
2022-12-17T19:59:35.356Z,98875.44
2022-12-17T20:02:03.756Z,98868.88
2022-12-17T20:04:31.063Z,98876.84
2022-12-17T20:07:00.736Z,98881.03
2022-12-17T20:09:27.505Z,98878.63
2022-12-17T20:11:54.254Z,98886.47
2022-12-17T20:14:23.707Z,98880.78
2022-12-17T20:16:52.678Z,98883.03
2022-12-17T20:19:21.257Z,98888.63
2022-12-17T20:21:48.597Z,98891.38
2022-12-17T20:24:17.802Z,98895.38
2022-12-17T20:26:46.706Z,98895.53
2022-12-17T20:29:13.633Z,98903.00
2022-12-17T20:31:46.629Z,98909.66
2022-12-17T20:34:18.299Z,98913.78
2022-12-17T20:36:45.504Z,98915.13
2022-12-17T20:39:14.457Z,98912.16
2022-12-17T20:41:43.997Z,98914.38
2022-12-17T20:44:13.180Z,98919.03
2022-12-17T20:46:41.323Z,98910.13
2022-12-17T20:49:08.909Z,98918.44
2022-12-17T20:51:35.675Z,98918.66
2022-12-17T20:54:04.102Z,98915.94
2022-12-17T20:56:33.635Z,98912.63
2022-12-17T20:59:03.718Z,98913.47
2022-12-17T21:01:32.183Z,98909.78
2022-12-17T21:03:59.684Z,98913.00
2022-12-17T21:06:28.592Z,98912.50
2022-12-17T21:08:56.246Z,98917.03
2022-12-17T21:11:24.984Z,98915.81
2022-12-17T21:13:52.037Z,98906.56
2022-12-17T21:16:22.547Z,98910.59
2022-12-17T21:18:52.209Z,98904.44
2022-12-17T21:21:23.260Z,98913.22
2022-12-17T21:23:50.759Z,98906.47
2022-12-17T21:26:19.419Z,98904.41
2022-12-17T21:28:47.699Z,98911.78
2022-12-17T21:31:16.985Z,98913.09
2022-12-17T21:33:47.612Z,98921.06
2022-12-17T21:36:16.123Z,98921.06
2022-12-17T21:38:43.190Z,98928.28
2022-12-17T21:41:11.789Z,98925.47
2022-12-17T21:43:40.099Z,98930.09
2022-12-17T21:46:08.942Z,98940.28
2022-12-17T21:48:42.011Z,98949.31
2022-12-17T21:51:12.821Z,98962.25
2022-12-17T21:53:42.314Z,98957.97
2022-12-17T21:56:11.401Z,98954.06
2022-12-17T21:58:38.731Z,98951.66
2022-12-17T22:01:14.365Z,98954.88
2022-12-17T22:03:46.808Z,98956.66
2022-12-17T22:06:17.643Z,98964.47
2022-12-17T22:08:45.088Z,98965.88
2022-12-17T22:11:14.012Z,98956.97
2022-12-17T22:14:07.829Z,98957.25
2022-12-17T22:16:39.462Z,98952.56
2022-12-17T22:19:10.573Z,98954.63
2022-12-17T22:21:39.983Z,98947.53
2022-12-17T22:24:07.431Z,98953.56
2022-12-17T22:26:34.587Z,98956.16
2022-12-17T22:29:01.638Z,98958.53
2022-12-17T22:31:46.759Z,98962.25
2022-12-17T22:35:25.689Z,98961.63
2022-12-17T22:40:17.862Z,98962.00
2022-12-17T22:42:33.015Z,98951.31
2022-12-17T22:42:54.377Z,98942.91
2022-12-17T22:45:41.785Z,98946.00
2022-12-17T22:48:10.316Z,98948.47
2022-12-17T22:50:38.652Z,98953.59
2022-12-17T22:53:13.938Z,98957.88
2022-12-17T22:55:41.122Z,98954.91
2022-12-17T22:58:08.317Z,98952.28
2022-12-17T23:00:36.150Z,98949.09
2022-12-17T23:03:03.690Z,98950.03
2022-12-17T23:05:30.680Z,98966.41
2022-12-17T23:07:58.156Z,98962.38
2022-12-17T23:10:27.030Z,98963.06
2022-12-17T23:12:55.032Z,98953.22
2022-12-17T23:15:23.558Z,98945.25
2022-12-17T23:17:51.422Z,98948.00
2022-12-17T23:20:18.436Z,98944.78
2022-12-17T23:22:45.047Z,98944.53
2022-12-17T23:25:12.627Z,98947.63
2022-12-17T23:27:40.769Z,98937.06
2022-12-17T23:30:08.705Z,98951.19
2022-12-17T23:32:35.913Z,98955.94
2022-12-17T23:35:02.643Z,98957.84
2022-12-17T23:37:29.318Z,98955.09
2022-12-17T23:39:55.897Z,98961.84
2022-12-17T23:42:22.626Z,98956.16
2022-12-17T23:44:50.787Z,98964.94
2022-12-17T23:47:17.393Z,98962.47
2022-12-17T23:49:44.137Z,98964.13
2022-12-17T23:52:10.783Z,98974.56
2022-12-17T23:54:37.538Z,98969.22
2022-12-17T23:57:04.361Z,98978.59
2022-12-17T23:59:31.078Z,98976.94
